ADDS METAR Data INFO
IDs: Format: Raw Decoded Include TAF

Data at: 1751 UTC 24 Mar 2017

METAR for:KVCT (Victoria Rgnl, TX, US)
Text:KVCT 241733Z 16019G24KT 10SM FEW019 BKN028 OVC034 24/19 A2998 RMK AO2 T02440194 $
Temperature: 24.4°C ( 76°F)
Dewpoint: 19.4°C ( 67°F) [RH = 74%]
Pressure (altimeter):29.98 inches Hg (1015.3 mb)
Winds:from the SSE (160 degrees) at 22 MPH (19 knots; 9.8 m/s) gusting to 28 MPH (24 knots; 12.3 m/s)
Visibility:10 or more sm (16+ km)
Ceiling:2800 feet AGL
Clouds: few clouds at 1900 feet AGL, broken clouds at 2800 feet AGL, overcast cloud deck at 3400 feet AGL
QC Flag:SOME DATA ABOVE MAY BE INACCURATE!!!"$" is an indication the sensor requires maintenance.


Page loaded:  17:51 UTC  |   10:51 AM Pacific  |   11:51 AM Mountain  |   12:51 PM Central  |   01:51 PM Eastern

 

ADVISORIES

FORECASTS

FORECASTS

OBSERVATIONS

USER TOOLS

ABOUT US